createdAt,value
2023-03-27T00:02:49.744Z,0.50
2023-03-27T00:08:12.356Z,2.17
2023-03-27T00:13:34.579Z,0.55
2023-03-27T00:18:56.432Z,0.52
2023-03-27T00:24:18.116Z,0.50
2023-03-27T00:29:39.879Z,0.75
2023-03-27T00:35:01.960Z,0.60
2023-03-27T00:40:23.737Z,4.47
2023-03-27T00:45:47.058Z,0.90
2023-03-27T00:51:09.483Z,1.80
2023-03-27T00:56:33.659Z,0.60
2023-03-27T01:01:56.023Z,0.68
2023-03-27T01:07:17.922Z,0.40
2023-03-27T01:12:49.383Z,0.70
2023-03-27T01:18:36.029Z,0.60
2023-03-27T01:24:04.043Z,0.90
2023-03-27T01:29:38.579Z,1.02
2023-03-27T01:35:37.595Z,1.03
2023-03-27T01:41:25.771Z,0.40
2023-03-27T01:46:56.944Z,0.70
2023-03-27T01:52:24.907Z,1.80
2023-03-27T01:58:00.437Z,0.60
2023-03-27T02:03:31.758Z,0.77
2023-03-27T02:08:56.500Z,0.82
2023-03-27T02:14:23.562Z,0.88
2023-03-27T02:20:24.115Z,1.30
2023-03-27T02:25:46.724Z,6.70
2023-03-27T02:31:57.167Z,7.07
2023-03-27T02:37:50.887Z,10.60
2023-03-27T02:43:19.830Z,10.75
2023-03-27T02:48:51.503Z,14.50
2023-03-27T02:54:17.312Z,18.42
2023-03-27T02:59:45.334Z,14.27
2023-03-27T03:05:17.904Z,16.93
2023-03-27T03:10:44.787Z,19.10
2023-03-27T03:16:08.700Z,22.53
2023-03-27T03:21:31.952Z,20.63
2023-03-27T03:26:53.745Z,14.87
2023-03-27T03:32:15.980Z,15.93
2023-03-27T03:37:39.042Z,16.57
2023-03-27T03:43:01.089Z,17.50
2023-03-27T03:48:23.619Z,13.10
2023-03-27T03:53:45.374Z,13.97
2023-03-27T03:59:08.799Z,15.73
2023-03-27T04:04:32.037Z,14.57
2023-03-27T04:09:53.856Z,15.87
2023-03-27T04:15:16.520Z,11.60
2023-03-27T04:20:38.328Z,14.33
2023-03-27T04:26:01.954Z,17.10
2023-03-27T04:31:23.949Z,10.03
2023-03-27T04:36:46.137Z,12.80
2023-03-27T04:42:08.416Z,12.23
2023-03-27T04:47:30.163Z,13.63
2023-03-27T04:52:53.283Z,11.80
2023-03-27T04:58:15.571Z,10.30
2023-03-27T05:03:37.359Z,9.80
2023-03-27T05:08:59.732Z,12.77
2023-03-27T05:14:23.393Z,17.07
2023-03-27T05:19:45.244Z,11.90
2023-03-27T05:25:08.518Z,13.67
2023-03-27T05:30:30.409Z,13.20
2023-03-27T05:35:52.831Z,12.33
2023-03-27T05:41:16.128Z,8.53
2023-03-27T05:46:39.145Z,11.03
2023-03-27T05:52:01.151Z,12.90
2023-03-27T05:57:23.186Z,7.47
2023-03-27T06:02:45.173Z,11.87
2023-03-27T06:08:11.682Z,8.67
2023-03-27T06:13:33.626Z,16.80
2023-03-27T06:18:56.062Z,13.23
2023-03-27T06:24:17.850Z,16.33
2023-03-27T06:29:40.424Z,11.50
2023-03-27T06:35:05.264Z,5.93
2023-03-27T06:40:28.879Z,7.47
2023-03-27T06:45:51.186Z,14.90
2023-03-27T06:51:13.019Z,13.03
2023-03-27T06:56:34.823Z,12.40
2023-03-27T07:01:56.745Z,16.90
2023-03-27T07:07:18.464Z,10.47
2023-03-27T07:12:41.390Z,12.00
2023-03-27T07:18:06.323Z,15.33
2023-03-27T07:23:28.159Z,12.83
2023-03-27T07:28:51.673Z,8.53
2023-03-27T07:34:13.512Z,12.53
2023-03-27T07:39:35.384Z,13.17
2023-03-27T07:44:57.116Z,8.90
2023-03-27T07:50:21.632Z,14.00
2023-03-27T07:55:43.355Z,11.50
2023-03-27T08:01:06.211Z,11.23
2023-03-27T08:06:28.119Z,11.47
2023-03-27T08:11:50.591Z,17.67
2023-03-27T08:17:16.215Z,14.27
2023-03-27T08:22:39.488Z,11.37
2023-03-27T08:28:04.725Z,8.20
2023-03-27T08:33:29.257Z,10.33
2023-03-27T08:38:51.482Z,17.13
2023-03-27T08:44:15.997Z,10.50
2023-03-27T08:49:47.247Z,11.23
2023-03-27T08:55:24.566Z,12.83
2023-03-27T09:01:00.794Z,7.40
2023-03-27T09:06:31.224Z,6.13
2023-03-27T09:12:09.933Z,8.00
2023-03-27T09:17:40.358Z,7.30
2023-03-27T09:23:13.661Z,6.73
2023-03-27T09:28:50.681Z,6.47
2023-03-27T09:34:16.926Z,5.93
2023-03-27T09:39:42.736Z,7.80
2023-03-27T09:45:07.903Z,11.60
2023-03-27T09:50:41.337Z,5.97
2023-03-27T09:56:06.300Z,4.57
2023-03-27T10:01:34.537Z,7.00
2023-03-27T10:07:01.483Z,3.90
2023-03-27T10:12:23.269Z,12.33
2023-03-27T10:17:48.893Z,3.67
2023-03-27T10:23:24.244Z,10.27
2023-03-27T10:28:51.640Z,6.50
2023-03-27T10:34:43.357Z,4.60
2023-03-27T10:40:09.281Z,6.20
2023-03-27T10:45:32.530Z,10.83
2023-03-27T10:50:58.437Z,4.80
2023-03-27T10:56:31.682Z,6.88
2023-03-27T11:01:58.318Z,6.90
2023-03-27T11:07:28.421Z,9.33
2023-03-27T11:13:01.766Z,5.25
2023-03-27T11:18:28.582Z,7.57
2023-03-27T11:23:57.767Z,5.10
2023-03-27T11:29:28.317Z,3.50
2023-03-27T11:34:58.635Z,6.03
2023-03-27T11:40:30.325Z,4.72
2023-03-27T11:46:19.576Z,8.85
2023-03-27T11:52:00.484Z,9.63
2023-03-27T11:57:25.917Z,4.90
2023-03-27T12:03:15.766Z,5.22
2023-03-27T12:09:25.101Z,7.35
2023-03-27T12:14:54.180Z,5.97
2023-03-27T12:20:52.379Z,4.80
2023-03-27T12:26:50.258Z,6.00
2023-03-27T12:32:48.801Z,7.57
2023-03-27T12:38:29.415Z,7.35
2023-03-27T12:43:57.445Z,3.70
2023-03-27T12:49:19.210Z,6.82
2023-03-27T12:55:09.386Z,2.72
2023-03-27T13:00:32.077Z,3.63
2023-03-27T13:06:12.823Z,3.83
2023-03-27T13:12:13.701Z,7.72
2023-03-27T13:18:00.634Z,5.80
2023-03-27T13:23:48.679Z,5.15
2023-03-27T13:29:20.742Z,4.72
2023-03-27T13:34:59.686Z,3.55
2023-03-27T13:40:28.598Z,5.43
2023-03-27T13:46:00.065Z,12.27
2023-03-27T13:51:47.880Z,10.65
2023-03-27T13:57:09.607Z,8.85
2023-03-27T14:02:59.889Z,5.53
2023-03-27T14:08:58.662Z,6.47
2023-03-27T14:14:30.888Z,6.87
2023-03-27T14:20:07.000Z,6.60
2023-03-27T14:25:34.303Z,6.75
2023-03-27T14:30:56.136Z,6.15
2023-03-27T14:36:22.570Z,8.15
2023-03-27T14:41:56.865Z,4.95
2023-03-27T14:47:21.821Z,3.40
2023-03-27T14:52:44.168Z,4.13
2023-03-27T14:58:13.575Z,5.18
2023-03-27T15:03:38.100Z,11.57
2023-03-27T15:09:05.429Z,5.60
2023-03-27T15:14:29.404Z,3.70
2023-03-27T15:20:01.906Z,3.70
2023-03-27T15:25:34.745Z,4.90
2023-03-27T15:31:00.669Z,4.10
2023-03-27T15:36:28.555Z,2.92
2023-03-27T15:41:52.645Z,6.23
2023-03-27T15:47:30.018Z,2.38
2023-03-27T15:52:53.670Z,3.87
2023-03-27T15:58:23.384Z,3.33
2023-03-27T16:03:45.642Z,3.95
2023-03-27T16:09:22.137Z,4.05
2023-03-27T16:14:53.353Z,2.90
2023-03-27T16:20:15.979Z,4.43
2023-03-27T16:25:38.166Z,4.73
2023-03-27T16:31:10.418Z,2.37
2023-03-27T16:36:35.603Z,3.33
2023-03-27T16:41:57.734Z,3.33
2023-03-27T16:47:20.500Z,1.77
2023-03-27T16:52:42.276Z,1.43
2023-03-27T16:58:03.997Z,2.58
2023-03-27T17:03:25.934Z,2.37
2023-03-27T17:08:58.140Z,7.03
2023-03-27T17:14:20.925Z,2.43
2023-03-27T17:19:42.958Z,3.23
2023-03-27T17:25:05.927Z,1.80
2023-03-27T17:30:38.182Z,3.97
2023-03-27T17:36:08.579Z,3.38
2023-03-27T17:41:30.491Z,1.50
2023-03-27T17:46:52.286Z,3.45
2023-03-27T17:52:14.225Z,3.87
2023-03-27T17:57:39.350Z,3.17
2023-03-27T18:03:01.763Z,5.70
2023-03-27T18:08:23.642Z,7.60
2023-03-27T18:13:53.536Z,7.13
2023-03-27T18:19:16.210Z,6.97
2023-03-27T18:24:38.059Z,5.40
2023-03-27T18:29:59.817Z,6.77
2023-03-27T18:35:21.853Z,5.63
2023-03-27T18:40:43.586Z,4.40
2023-03-27T18:46:07.249Z,3.43
2023-03-27T18:51:31.649Z,7.40
2023-03-27T18:56:53.916Z,8.07
2023-03-27T19:02:17.270Z,4.50
2023-03-27T19:07:44.836Z,3.50
2023-03-27T19:13:07.153Z,3.83
2023-03-27T19:18:30.095Z,5.23
2023-03-27T19:23:52.179Z,1.70
2023-03-27T19:29:13.973Z,3.78
2023-03-27T19:34:42.474Z,2.27
2023-03-27T19:40:05.476Z,3.83
2023-03-27T19:45:27.310Z,3.07
2023-03-27T19:50:50.811Z,1.55
2023-03-27T19:56:12.721Z,4.43
2023-03-27T20:01:37.470Z,3.10
2023-03-27T20:07:01.761Z,4.90
2023-03-27T20:12:24.874Z,3.03
2023-03-27T20:17:46.875Z,3.10
2023-03-27T20:23:09.948Z,3.93
2023-03-27T20:28:31.674Z,3.23
2023-03-27T20:33:53.487Z,2.93
2023-03-27T20:39:15.259Z,2.70
2023-03-27T20:44:37.092Z,2.60
2023-03-27T20:49:59.032Z,2.83
2023-03-27T20:55:32.822Z,2.07
2023-03-27T21:00:56.398Z,2.77
2023-03-27T21:06:20.444Z,3.13
2023-03-27T21:11:42.330Z,4.03
2023-03-27T21:17:04.158Z,5.07
2023-03-27T21:22:26.046Z,4.73
2023-03-27T21:27:49.079Z,2.97
2023-03-27T21:33:11.397Z,4.63
2023-03-27T21:38:33.113Z,4.30
2023-03-27T21:43:54.848Z,3.43
2023-03-27T21:49:16.624Z,1.30
2023-03-27T21:54:38.395Z,3.47
2023-03-27T22:00:00.270Z,2.47
2023-03-27T22:05:22.001Z,7.60
2023-03-27T22:10:43.841Z,5.37
2023-03-27T22:16:13.792Z,2.70
2023-03-27T22:21:35.852Z,4.30
2023-03-27T22:26:57.658Z,1.97
2023-03-27T22:32:19.589Z,7.00
2023-03-27T22:37:41.405Z,11.10
2023-03-27T22:43:03.145Z,4.53
2023-03-27T22:48:24.852Z,4.63
2023-03-27T22:53:46.714Z,3.17
2023-03-27T22:59:08.840Z,2.63
2023-03-27T23:04:30.718Z,2.70
2023-03-27T23:09:52.482Z,2.43
2023-03-27T23:15:14.253Z,4.00
2023-03-27T23:20:36.035Z,3.20
2023-03-27T23:25:58.220Z,3.70
2023-03-27T23:31:20.690Z,5.20
2023-03-27T23:36:42.460Z,2.80
2023-03-27T23:42:04.260Z,3.13
2023-03-27T23:47:26.109Z,2.60
2023-03-27T23:52:47.857Z,3.90
2023-03-27T23:58:09.632Z,3.00
